sensor_id;sensor_type;location;lat;lon;timestamp;P1;durP1;ratioP1;P2;durP2;ratioP2
34896;SDS011;43407;51.828;-2.298;2023-07-22T00:00:20;2.88;;;2.33;;
34896;SDS011;43407;51.828;-2.298;2023-07-22T00:02:47;3.22;;;2.40;;
34896;SDS011;43407;51.828;-2.298;2023-07-22T00:05:13;3.83;;;2.33;;
34896;SDS011;43407;51.828;-2.298;2023-07-22T00:07:39;2.22;;;1.98;;
34896;SDS011;43407;51.828;-2.298;2023-07-22T00:10:05;2.80;;;2.50;;
34896;SDS011;43407;51.828;-2.298;2023-07-22T00:12:33;3.25;;;2.40;;
34896;SDS011;43407;51.828;-2.298;2023-07-22T00:14:59;3.63;;;2.60;;
34896;SDS011;43407;51.828;-2.298;2023-07-22T00:17:25;3.47;;;2.55;;
34896;SDS011;43407;51.828;-2.298;2023-07-22T00:19:51;4.90;;;2.38;;
34896;SDS011;43407;51.828;-2.298;2023-07-22T00:22:16;3.83;;;2.28;;
34896;SDS011;43407;51.828;-2.298;2023-07-22T00:24:42;3.63;;;2.45;;
34896;SDS011;43407;51.828;-2.298;2023-07-22T00:27:07;3.10;;;2.42;;
34896;SDS011;43407;51.828;-2.298;2023-07-22T00:29:34;2.75;;;2.20;;
34896;SDS011;43407;51.828;-2.298;2023-07-22T00:32:00;2.50;;;2.10;;
34896;SDS011;43407;51.828;-2.298;2023-07-22T00:34:25;3.42;;;2.55;;
34896;SDS011;43407;51.828;-2.298;2023-07-22T00:36:51;3.10;;;2.45;;
34896;SDS011;43407;51.828;-2.298;2023-07-22T00:39:17;2.47;;;2.20;;
34896;SDS011;43407;51.828;-2.298;2023-07-22T00:41:43;4.93;;;2.60;;
34896;SDS011;43407;51.828;-2.298;2023-07-22T00:44:09;2.55;;;1.90;;
34896;SDS011;43407;51.828;-2.298;2023-07-22T00:46:36;3.42;;;2.60;;
34896;SDS011;43407;51.828;-2.298;2023-07-22T00:49:02;2.40;;;2.17;;
34896;SDS011;43407;51.828;-2.298;2023-07-22T00:51:27;4.20;;;2.63;;
34896;SDS011;43407;51.828;-2.298;2023-07-22T00:53:53;4.30;;;2.13;;
34896;SDS011;43407;51.828;-2.298;2023-07-22T00:56:19;4.20;;;2.50;;
34896;SDS011;43407;51.828;-2.298;2023-07-22T00:58:44;3.40;;;2.50;;
34896;SDS011;43407;51.828;-2.298;2023-07-22T01:01:10;2.63;;;2.20;;
34896;SDS011;43407;51.828;-2.298;2023-07-22T01:03:35;2.75;;;2.45;;
34896;SDS011;43407;51.828;-2.298;2023-07-22T01:06:01;3.30;;;2.35;;
34896;SDS011;43407;51.828;-2.298;2023-07-22T01:08:27;5.63;;;2.30;;
34896;SDS011;43407;51.828;-2.298;2023-07-22T01:10:53;3.30;;;2.00;;
34896;SDS011;43407;51.828;-2.298;2023-07-22T01:13:19;2.10;;;1.92;;
34896;SDS011;43407;51.828;-2.298;2023-07-22T01:15:45;2.08;;;1.75;;
34896;SDS011;43407;51.828;-2.298;2023-07-22T01:18:11;1.60;;;1.50;;
34896;SDS011;43407;51.828;-2.298;2023-07-22T01:20:36;3.25;;;2.00;;
34896;SDS011;43407;51.828;-2.298;2023-07-22T01:23:02;4.70;;;1.90;;
34896;SDS011;43407;51.828;-2.298;2023-07-22T01:25:28;2.78;;;2.08;;
34896;SDS011;43407;51.828;-2.298;2023-07-22T01:27:54;3.55;;;1.70;;
34896;SDS011;43407;51.828;-2.298;2023-07-22T01:30:20;2.97;;;1.90;;
34896;SDS011;43407;51.828;-2.298;2023-07-22T01:32:46;4.93;;;2.00;;
34896;SDS011;43407;51.828;-2.298;2023-07-22T01:35:12;3.08;;;2.10;;
34896;SDS011;43407;51.828;-2.298;2023-07-22T01:37:38;2.47;;;1.70;;
34896;SDS011;43407;51.828;-2.298;2023-07-22T01:40:04;3.35;;;1.75;;
34896;SDS011;43407;51.828;-2.298;2023-07-22T01:42:48;2.80;;;2.25;;
34896;SDS011;43407;51.828;-2.298;2023-07-22T01:45:14;3.80;;;1.80;;
34896;SDS011;43407;51.828;-2.298;2023-07-22T01:47:39;4.55;;;2.00;;
34896;SDS011;43407;51.828;-2.298;2023-07-22T01:50:08;2.78;;;2.03;;
34896;SDS011;43407;51.828;-2.298;2023-07-22T01:52:35;1.98;;;1.77;;
34896;SDS011;43407;51.828;-2.298;2023-07-22T01:55:00;3.78;;;1.98;;
34896;SDS011;43407;51.828;-2.298;2023-07-22T01:57:26;3.08;;;1.90;;
34896;SDS011;43407;51.828;-2.298;2023-07-22T01:59:52;2.30;;;2.10;;
34896;SDS011;43407;51.828;-2.298;2023-07-22T02:02:18;2.95;;;2.20;;
34896;SDS011;43407;51.828;-2.298;2023-07-22T02:04:44;2.10;;;1.90;;
34896;SDS011;43407;51.828;-2.298;2023-07-22T02:07:09;3.30;;;2.05;;
34896;SDS011;43407;51.828;-2.298;2023-07-22T02:09:35;2.05;;;1.88;;
34896;SDS011;43407;51.828;-2.298;2023-07-22T02:12:01;2.75;;;2.25;;
34896;SDS011;43407;51.828;-2.298;2023-07-22T02:14:27;3.92;;;2.65;;
34896;SDS011;43407;51.828;-2.298;2023-07-22T02:16:52;4.20;;;2.83;;
34896;SDS011;43407;51.828;-2.298;2023-07-22T02:19:18;3.47;;;2.70;;
34896;SDS011;43407;51.828;-2.298;2023-07-22T02:21:44;3.30;;;2.83;;
34896;SDS011;43407;51.828;-2.298;2023-07-22T02:24:09;2.58;;;2.15;;
34896;SDS011;43407;51.828;-2.298;2023-07-22T02:26:35;5.05;;;2.50;;
34896;SDS011;43407;51.828;-2.298;2023-07-22T02:29:01;4.93;;;2.83;;
34896;SDS011;43407;51.828;-2.298;2023-07-22T02:31:27;4.28;;;2.90;;
34896;SDS011;43407;51.828;-2.298;2023-07-22T02:33:53;4.45;;;2.92;;
34896;SDS011;43407;51.828;-2.298;2023-07-22T02:36:18;5.40;;;3.22;;
34896;SDS011;43407;51.828;-2.298;2023-07-22T02:38:44;4.55;;;2.80;;
34896;SDS011;43407;51.828;-2.298;2023-07-22T02:41:09;6.25;;;3.20;;
34896;SDS011;43407;51.828;-2.298;2023-07-22T02:43:35;5.45;;;2.88;;
34896;SDS011;43407;51.828;-2.298;2023-07-22T02:46:01;5.38;;;2.70;;
34896;SDS011;43407;51.828;-2.298;2023-07-22T02:48:28;4.75;;;2.85;;
34896;SDS011;43407;51.828;-2.298;2023-07-22T02:50:54;3.83;;;2.58;;
34896;SDS011;43407;51.828;-2.298;2023-07-22T02:53:20;5.05;;;3.17;;
34896;SDS011;43407;51.828;-2.298;2023-07-22T02:55:46;4.78;;;2.63;;
34896;SDS011;43407;51.828;-2.298;2023-07-22T02:58:11;7.25;;;2.97;;
34896;SDS011;43407;51.828;-2.298;2023-07-22T03:00:37;3.63;;;2.70;;
34896;SDS011;43407;51.828;-2.298;2023-07-22T03:03:03;7.35;;;2.88;;
34896;SDS011;43407;51.828;-2.298;2023-07-22T03:05:30;5.20;;;2.63;;
34896;SDS011;43407;51.828;-2.298;2023-07-22T03:07:56;6.10;;;2.88;;
34896;SDS011;43407;51.828;-2.298;2023-07-22T03:10:23;4.20;;;2.38;;
34896;SDS011;43407;51.828;-2.298;2023-07-22T03:12:50;3.03;;;2.15;;
34896;SDS011;43407;51.828;-2.298;2023-07-22T03:15:20;5.60;;;2.42;;
34896;SDS011;43407;51.828;-2.298;2023-07-22T03:17:46;4.53;;;2.65;;
34896;SDS011;43407;51.828;-2.298;2023-07-22T03:20:11;5.55;;;2.60;;
34896;SDS011;43407;51.828;-2.298;2023-07-22T03:22:40;5.68;;;2.58;;
34896;SDS011;43407;51.828;-2.298;2023-07-22T03:25:07;6.15;;;2.42;;
34896;SDS011;43407;51.828;-2.298;2023-07-22T03:27:35;3.30;;;2.10;;
34896;SDS011;43407;51.828;-2.298;2023-07-22T03:30:02;3.33;;;2.20;;
34896;SDS011;43407;51.828;-2.298;2023-07-22T03:32:28;3.63;;;2.40;;
34896;SDS011;43407;51.828;-2.298;2023-07-22T03:34:54;5.68;;;2.22;;
34896;SDS011;43407;51.828;-2.298;2023-07-22T03:37:19;5.70;;;2.50;;
34896;SDS011;43407;51.828;-2.298;2023-07-22T03:39:45;3.40;;;2.00;;
34896;SDS011;43407;51.828;-2.298;2023-07-22T03:42:11;5.15;;;2.58;;
34896;SDS011;43407;51.828;-2.298;2023-07-22T03:44:36;4.32;;;2.03;;
34896;SDS011;43407;51.828;-2.298;2023-07-22T03:47:02;4.22;;;2.40;;
34896;SDS011;43407;51.828;-2.298;2023-07-22T03:49:28;4.47;;;2.40;;
34896;SDS011;43407;51.828;-2.298;2023-07-22T03:51:53;3.85;;;2.28;;
34896;SDS011;43407;51.828;-2.298;2023-07-22T03:54:19;3.40;;;2.13;;
34896;SDS011;43407;51.828;-2.298;2023-07-22T03:56:44;2.88;;;1.92;;
34896;SDS011;43407;51.828;-2.298;2023-07-22T03:59:10;3.60;;;1.80;;
34896;SDS011;43407;51.828;-2.298;2023-07-22T04:01:35;3.47;;;2.10;;
34896;SDS011;43407;51.828;-2.298;2023-07-22T04:04:01;5.97;;;2.33;;
34896;SDS011;43407;51.828;-2.298;2023-07-22T04:06:26;2.50;;;1.98;;
34896;SDS011;43407;51.828;-2.298;2023-07-22T04:08:52;3.15;;;1.90;;
34896;SDS011;43407;51.828;-2.298;2023-07-22T04:11:17;3.30;;;2.13;;
34896;SDS011;43407;51.828;-2.298;2023-07-22T04:13:43;8.60;;;2.58;;
34896;SDS011;43407;51.828;-2.298;2023-07-22T04:16:08;2.83;;;2.00;;
34896;SDS011;43407;51.828;-2.298;2023-07-22T04:18:34;4.53;;;1.95;;
34896;SDS011;43407;51.828;-2.298;2023-07-22T04:20:59;3.92;;;2.10;;
34896;SDS011;43407;51.828;-2.298;2023-07-22T04:23:25;2.20;;;2.00;;
34896;SDS011;43407;51.828;-2.298;2023-07-22T04:25:51;2.35;;;2.00;;
34896;SDS011;43407;51.828;-2.298;2023-07-22T04:28:17;3.58;;;1.85;;
34896;SDS011;43407;51.828;-2.298;2023-07-22T04:30:42;5.53;;;2.42;;
34896;SDS011;43407;51.828;-2.298;2023-07-22T04:33:08;4.22;;;1.92;;
34896;SDS011;43407;51.828;-2.298;2023-07-22T04:35:37;4.80;;;2.20;;
34896;SDS011;43407;51.828;-2.298;2023-07-22T04:38:03;2.80;;;2.13;;
34896;SDS011;43407;51.828;-2.298;2023-07-22T04:40:29;2.53;;;2.00;;
34896;SDS011;43407;51.828;-2.298;2023-07-22T04:42:55;5.82;;;2.33;;
34896;SDS011;43407;51.828;-2.298;2023-07-22T04:45:22;4.00;;;1.95;;
34896;SDS011;43407;51.828;-2.298;2023-07-22T04:47:49;5.63;;;2.70;;
34896;SDS011;43407;51.828;-2.298;2023-07-22T04:50:15;4.63;;;2.53;;
34896;SDS011;43407;51.828;-2.298;2023-07-22T04:52:42;2.40;;;2.20;;
34896;SDS011;43407;51.828;-2.298;2023-07-22T04:55:09;5.60;;;2.67;;
34896;SDS011;43407;51.828;-2.298;2023-07-22T04:57:35;4.22;;;2.40;;
34896;SDS011;43407;51.828;-2.298;2023-07-22T05:00:04;4.88;;;2.60;;
34896;SDS011;43407;51.828;-2.298;2023-07-22T05:02:30;5.78;;;2.40;;
34896;SDS011;43407;51.828;-2.298;2023-07-22T05:04:57;4.00;;;2.88;;
34896;SDS011;43407;51.828;-2.298;2023-07-22T05:07:22;3.03;;;2.42;;
34896;SDS011;43407;51.828;-2.298;2023-07-22T05:09:48;6.95;;;2.92;;
34896;SDS011;43407;51.828;-2.298;2023-07-22T05:12:14;7.70;;;2.70;;
34896;SDS011;43407;51.828;-2.298;2023-07-22T05:14:39;5.38;;;2.95;;
34896;SDS011;43407;51.828;-2.298;2023-07-22T05:17:05;3.60;;;2.28;;
34896;SDS011;43407;51.828;-2.298;2023-07-22T05:19:31;4.93;;;2.80;;
34896;SDS011;43407;51.828;-2.298;2023-07-22T05:21:56;4.30;;;2.60;;
34896;SDS011;43407;51.828;-2.298;2023-07-22T05:24:22;5.20;;;2.78;;
34896;SDS011;43407;51.828;-2.298;2023-07-22T05:26:47;3.10;;;2.47;;
34896;SDS011;43407;51.828;-2.298;2023-07-22T05:29:13;5.40;;;2.72;;
34896;SDS011;43407;51.828;-2.298;2023-07-22T05:31:38;4.60;;;2.80;;
34896;SDS011;43407;51.828;-2.298;2023-07-22T05:34:04;4.03;;;2.63;;
34896;SDS011;43407;51.828;-2.298;2023-07-22T05:36:29;3.45;;;2.47;;
34896;SDS011;43407;51.828;-2.298;2023-07-22T05:38:55;4.68;;;2.60;;
34896;SDS011;43407;51.828;-2.298;2023-07-22T05:41:21;3.88;;;2.90;;
34896;SDS011;43407;51.828;-2.298;2023-07-22T05:43:46;4.78;;;2.50;;
34896;SDS011;43407;51.828;-2.298;2023-07-22T05:46:12;4.07;;;2.53;;
34896;SDS011;43407;51.828;-2.298;2023-07-22T05:48:37;3.78;;;2.60;;
34896;SDS011;43407;51.828;-2.298;2023-07-22T05:51:03;3.25;;;2.95;;
34896;SDS011;43407;51.828;-2.298;2023-07-22T05:53:29;5.40;;;3.08;;
34896;SDS011;43407;51.828;-2.298;2023-07-22T05:55:54;4.78;;;3.03;;
34896;SDS011;43407;51.828;-2.298;2023-07-22T05:58:20;6.57;;;3.90;;
34896;SDS011;43407;51.828;-2.298;2023-07-22T06:00:45;4.07;;;3.33;;
34896;SDS011;43407;51.828;-2.298;2023-07-22T06:03:11;5.03;;;3.25;;
34896;SDS011;43407;51.828;-2.298;2023-07-22T06:05:37;4.75;;;3.60;;
34896;SDS011;43407;51.828;-2.298;2023-07-22T06:08:03;5.75;;;4.35;;
34896;SDS011;43407;51.828;-2.298;2023-07-22T06:10:29;5.00;;;4.00;;
34896;SDS011;43407;51.828;-2.298;2023-07-22T06:12:55;4.35;;;3.55;;
34896;SDS011;43407;51.828;-2.298;2023-07-22T06:15:21;4.55;;;4.00;;
34896;SDS011;43407;51.828;-2.298;2023-07-22T06:17:46;5.40;;;4.28;;
34896;SDS011;43407;51.828;-2.298;2023-07-22T06:20:12;6.53;;;4.03;;
34896;SDS011;43407;51.828;-2.298;2023-07-22T06:22:38;5.55;;;4.07;;
34896;SDS011;43407;51.828;-2.298;2023-07-22T06:25:04;6.30;;;4.05;;
34896;SDS011;43407;51.828;-2.298;2023-07-22T06:27:30;6.15;;;4.72;;
34896;SDS011;43407;51.828;-2.298;2023-07-22T06:29:55;5.43;;;4.40;;
34896;SDS011;43407;51.828;-2.298;2023-07-22T06:32:21;5.10;;;4.28;;
34896;SDS011;43407;51.828;-2.298;2023-07-22T06:34:47;7.28;;;4.35;;
34896;SDS011;43407;51.828;-2.298;2023-07-22T06:37:13;7.47;;;4.22;;
34896;SDS011;43407;51.828;-2.298;2023-07-22T06:39:38;7.35;;;4.15;;
34896;SDS011;43407;51.828;-2.298;2023-07-22T06:42:04;5.35;;;4.32;;
34896;SDS011;43407;51.828;-2.298;2023-07-22T06:44:29;5.35;;;4.20;;
34896;SDS011;43407;51.828;-2.298;2023-07-22T06:46:55;5.25;;;4.10;;
34896;SDS011;43407;51.828;-2.298;2023-07-22T06:49:21;6.40;;;4.30;;
34896;SDS011;43407;51.828;-2.298;2023-07-22T06:51:47;4.65;;;4.22;;
34896;SDS011;43407;51.828;-2.298;2023-07-22T06:54:12;6.70;;;4.55;;
34896;SDS011;43407;51.828;-2.298;2023-07-22T06:56:38;8.70;;;4.30;;
34896;SDS011;43407;51.828;-2.298;2023-07-22T06:59:03;6.63;;;3.92;;
34896;SDS011;43407;51.828;-2.298;2023-07-22T07:01:29;7.57;;;4.43;;
34896;SDS011;43407;51.828;-2.298;2023-07-22T07:03:54;7.10;;;4.82;;
34896;SDS011;43407;51.828;-2.298;2023-07-22T07:06:20;5.88;;;4.70;;
34896;SDS011;43407;51.828;-2.298;2023-07-22T07:08:46;5.28;;;4.38;;
34896;SDS011;43407;51.828;-2.298;2023-07-22T07:11:11;5.32;;;4.03;;
34896;SDS011;43407;51.828;-2.298;2023-07-22T07:13:37;7.63;;;4.80;;
34896;SDS011;43407;51.828;-2.298;2023-07-22T07:18:51;7.00;;;4.53;;
34896;SDS011;43407;51.828;-2.298;2023-07-22T07:21:17;7.85;;;4.72;;
34896;SDS011;43407;51.828;-2.298;2023-07-22T07:23:43;5.55;;;5.03;;
34896;SDS011;43407;51.828;-2.298;2023-07-22T07:26:09;7.10;;;4.80;;
34896;SDS011;43407;51.828;-2.298;2023-07-22T07:28:35;8.90;;;5.35;;
34896;SDS011;43407;51.828;-2.298;2023-07-22T07:31:00;9.88;;;5.13;;
34896;SDS011;43407;51.828;-2.298;2023-07-22T07:33:26;5.45;;;4.45;;
34896;SDS011;43407;51.828;-2.298;2023-07-22T07:35:51;7.05;;;5.13;;
34896;SDS011;43407;51.828;-2.298;2023-07-22T07:38:17;8.10;;;5.43;;
34896;SDS011;43407;51.828;-2.298;2023-07-22T07:40:42;8.68;;;5.72;;
34896;SDS011;43407;51.828;-2.298;2023-07-22T07:43:08;6.50;;;5.18;;
34896;SDS011;43407;51.828;-2.298;2023-07-22T07:45:35;5.85;;;5.22;;
34896;SDS011;43407;51.828;-2.298;2023-07-22T07:48:03;9.63;;;5.72;;
34896;SDS011;43407;51.828;-2.298;2023-07-22T07:50:29;5.85;;;5.00;;
34896;SDS011;43407;51.828;-2.298;2023-07-22T07:52:54;5.82;;;5.10;;
34896;SDS011;43407;51.828;-2.298;2023-07-22T07:55:20;8.27;;;6.07;;
34896;SDS011;43407;51.828;-2.298;2023-07-22T07:57:46;7.38;;;5.88;;
34896;SDS011;43407;51.828;-2.298;2023-07-22T08:00:11;6.85;;;5.82;;
34896;SDS011;43407;51.828;-2.298;2023-07-22T08:02:38;7.85;;;5.38;;
34896;SDS011;43407;51.828;-2.298;2023-07-22T08:05:03;9.77;;;5.90;;
34896;SDS011;43407;51.828;-2.298;2023-07-22T08:07:29;7.70;;;6.13;;
34896;SDS011;43407;51.828;-2.298;2023-07-22T08:09:55;8.20;;;6.25;;
34896;SDS011;43407;51.828;-2.298;2023-07-22T08:12:22;10.90;;;6.82;;
34896;SDS011;43407;51.828;-2.298;2023-07-22T08:14:48;8.48;;;6.38;;
34896;SDS011;43407;51.828;-2.298;2023-07-22T08:17:13;8.18;;;6.40;;
34896;SDS011;43407;51.828;-2.298;2023-07-22T08:19:39;10.35;;;6.75;;
34896;SDS011;43407;51.828;-2.298;2023-07-22T08:22:04;6.88;;;5.90;;
34896;SDS011;43407;51.828;-2.298;2023-07-22T08:24:31;7.35;;;6.22;;
34896;SDS011;43407;51.828;-2.298;2023-07-22T08:26:57;8.63;;;6.45;;
34896;SDS011;43407;51.828;-2.298;2023-07-22T08:29:23;10.63;;;6.80;;
34896;SDS011;43407;51.828;-2.298;2023-07-22T08:31:49;9.20;;;6.25;;
34896;SDS011;43407;51.828;-2.298;2023-07-22T08:34:15;7.75;;;6.20;;
34896;SDS011;43407;51.828;-2.298;2023-07-22T08:36:41;8.13;;;6.38;;
34896;SDS011;43407;51.828;-2.298;2023-07-22T08:39:06;7.63;;;6.10;;
34896;SDS011;43407;51.828;-2.298;2023-07-22T08:41:32;7.90;;;6.40;;
34896;SDS011;43407;51.828;-2.298;2023-07-22T08:43:59;6.30;;;5.57;;
34896;SDS011;43407;51.828;-2.298;2023-07-22T08:46:27;9.48;;;5.68;;
34896;SDS011;43407;51.828;-2.298;2023-07-22T08:48:54;6.82;;;5.70;;
34896;SDS011;43407;51.828;-2.298;2023-07-22T08:51:21;6.85;;;5.55;;
34896;SDS011;43407;51.828;-2.298;2023-07-22T08:53:48;7.40;;;5.68;;
34896;SDS011;43407;51.828;-2.298;2023-07-22T08:56:14;6.68;;;6.07;;
34896;SDS011;43407;51.828;-2.298;2023-07-22T08:58:41;7.90;;;5.97;;
34896;SDS011;43407;51.828;-2.298;2023-07-22T09:01:08;7.28;;;5.97;;
34896;SDS011;43407;51.828;-2.298;2023-07-22T09:03:33;6.22;;;5.60;;
34896;SDS011;43407;51.828;-2.298;2023-07-22T09:05:59;8.10;;;5.80;;
34896;SDS011;43407;51.828;-2.298;2023-07-22T09:08:24;8.25;;;5.75;;
34896;SDS011;43407;51.828;-2.298;2023-07-22T09:10:50;6.90;;;5.88;;
34896;SDS011;43407;51.828;-2.298;2023-07-22T09:13:16;7.28;;;5.78;;
34896;SDS011;43407;51.828;-2.298;2023-07-22T09:15:43;6.22;;;5.00;;
34896;SDS011;43407;51.828;-2.298;2023-07-22T09:18:10;6.38;;;5.35;;
34896;SDS011;43407;51.828;-2.298;2023-07-22T09:20:35;6.68;;;6.00;;
34896;SDS011;43407;51.828;-2.298;2023-07-22T09:23:01;7.00;;;5.50;;
34896;SDS011;43407;51.828;-2.298;2023-07-22T09:25:27;6.60;;;5.43;;
34896;SDS011;43407;51.828;-2.298;2023-07-22T09:27:54;8.23;;;5.43;;
34896;SDS011;43407;51.828;-2.298;2023-07-22T09:32:49;6.82;;;5.57;;
34896;SDS011;43407;51.828;-2.298;2023-07-22T09:35:15;10.18;;;6.15;;
34896;SDS011;43407;51.828;-2.298;2023-07-22T09:37:42;8.45;;;6.07;;
34896;SDS011;43407;51.828;-2.298;2023-07-22T09:42:42;6.95;;;5.22;;
34896;SDS011;43407;51.828;-2.298;2023-07-22T09:45:18;7.10;;;6.15;;
34896;SDS011;43407;51.828;-2.298;2023-07-22T09:47:48;10.52;;;5.88;;
34896;SDS011;43407;51.828;-2.298;2023-07-22T09:50:15;11.23;;;6.28;;
34896;SDS011;43407;51.828;-2.298;2023-07-22T09:55:27;9.77;;;6.18;;
34896;SDS011;43407;51.828;-2.298;2023-07-22T09:58:03;8.00;;;6.00;;
34896;SDS011;43407;51.828;-2.298;2023-07-22T10:00:33;7.10;;;6.15;;
34896;SDS011;43407;51.828;-2.298;2023-07-22T10:03:00;8.77;;;6.50;;
34896;SDS011;43407;51.828;-2.298;2023-07-22T10:05:27;5.57;;;5.07;;
34896;SDS011;43407;51.828;-2.298;2023-07-22T10:07:55;8.77;;;6.78;;
34896;SDS011;43407;51.828;-2.298;2023-07-22T10:10:32;8.77;;;6.13;;
34896;SDS011;43407;51.828;-2.298;2023-07-22T10:12:58;7.85;;;5.45;;
34896;SDS011;43407;51.828;-2.298;2023-07-22T10:15:25;7.57;;;5.80;;
34896;SDS011;43407;51.828;-2.298;2023-07-22T10:17:53;6.32;;;5.63;;
34896;SDS011;43407;51.828;-2.298;2023-07-22T10:20:20;6.75;;;5.30;;
34896;SDS011;43407;51.828;-2.298;2023-07-22T10:22:47;7.43;;;5.63;;
34896;SDS011;43407;51.828;-2.298;2023-07-22T10:25:14;7.00;;;5.93;;
34896;SDS011;43407;51.828;-2.298;2023-07-22T10:27:41;9.40;;;6.78;;
34896;SDS011;43407;51.828;-2.298;2023-07-22T10:30:11;7.65;;;6.85;;
34896;SDS011;43407;51.828;-2.298;2023-07-22T10:32:39;9.63;;;6.47;;
34896;SDS011;43407;51.828;-2.298;2023-07-22T10:35:14;10.15;;;7.43;;
34896;SDS011;43407;51.828;-2.298;2023-07-22T10:38:08;9.52;;;7.13;;
34896;SDS011;43407;51.828;-2.298;2023-07-22T10:40:49;9.55;;;6.72;;
34896;SDS011;43407;51.828;-2.298;2023-07-22T10:43:16;8.65;;;6.00;;
34896;SDS011;43407;51.828;-2.298;2023-07-22T10:45:45;9.18;;;6.57;;
34896;SDS011;43407;51.828;-2.298;2023-07-22T10:48:14;10.55;;;6.40;;
34896;SDS011;43407;51.828;-2.298;2023-07-22T10:50:47;10.32;;;7.00;;
34896;SDS011;43407;51.828;-2.298;2023-07-22T10:56:33;12.32;;;8.13;;
34896;SDS011;43407;51.828;-2.298;2023-07-22T11:04:09;7.55;;;6.15;;
34896;SDS011;43407;51.828;-2.298;2023-07-22T11:06:36;6.50;;;4.93;;
34896;SDS011;43407;51.828;-2.298;2023-07-22T11:14:27;7.32;;;5.63;;
34896;SDS011;43407;51.828;-2.298;2023-07-22T11:16:56;7.22;;;5.57;;
34896;SDS011;43407;51.828;-2.298;2023-07-22T11:19:22;12.82;;;5.15;;
34896;SDS011;43407;51.828;-2.298;2023-07-22T11:21:49;7.72;;;5.47;;
34896;SDS011;43407;51.828;-2.298;2023-07-22T11:24:15;6.10;;;5.20;;
34896;SDS011;43407;51.828;-2.298;2023-07-22T11:26:41;6.50;;;4.85;;
34896;SDS011;43407;51.828;-2.298;2023-07-22T11:29:08;5.93;;;5.15;;
34896;SDS011;43407;51.828;-2.298;2023-07-22T11:31:40;6.57;;;4.78;;
34896;SDS011;43407;51.828;-2.298;2023-07-22T11:34:08;6.10;;;5.10;;
34896;SDS011;43407;51.828;-2.298;2023-07-22T11:36:34;6.72;;;5.90;;
34896;SDS011;43407;51.828;-2.298;2023-07-22T11:39:10;6.63;;;5.57;;
34896;SDS011;43407;51.828;-2.298;2023-07-22T11:41:38;6.63;;;5.20;;
34896;SDS011;43407;51.828;-2.298;2023-07-22T11:44:06;6.45;;;5.13;;
34896;SDS011;43407;51.828;-2.298;2023-07-22T11:46:44;6.35;;;5.07;;
34896;SDS011;43407;51.828;-2.298;2023-07-22T11:49:21;7.90;;;4.95;;
34896;SDS011;43407;51.828;-2.298;2023-07-22T11:54:13;5.85;;;4.75;;
34896;SDS011;43407;51.828;-2.298;2023-07-22T11:56:40;5.72;;;4.70;;
34896;SDS011;43407;51.828;-2.298;2023-07-22T11:59:05;7.20;;;4.80;;
34896;SDS011;43407;51.828;-2.298;2023-07-22T12:01:34;5.60;;;4.50;;
34896;SDS011;43407;51.828;-2.298;2023-07-22T12:03:59;6.13;;;4.82;;
34896;SDS011;43407;51.828;-2.298;2023-07-22T12:06:26;4.55;;;4.15;;
34896;SDS011;43407;51.828;-2.298;2023-07-22T12:08:52;5.65;;;4.50;;
34896;SDS011;43407;51.828;-2.298;2023-07-22T12:11:18;4.43;;;4.00;;
34896;SDS011;43407;51.828;-2.298;2023-07-22T12:13:45;5.05;;;4.18;;
34896;SDS011;43407;51.828;-2.298;2023-07-22T12:16:12;7.35;;;4.57;;
34896;SDS011;43407;51.828;-2.298;2023-07-22T12:18:44;5.40;;;4.15;;
34896;SDS011;43407;51.828;-2.298;2023-07-22T12:21:11;5.18;;;4.13;;
34896;SDS011;43407;51.828;-2.298;2023-07-22T12:23:37;4.80;;;3.70;;
34896;SDS011;43407;51.828;-2.298;2023-07-22T12:26:03;4.72;;;3.90;;
34896;SDS011;43407;51.828;-2.298;2023-07-22T12:28:29;3.75;;;3.45;;
34896;SDS011;43407;51.828;-2.298;2023-07-22T12:30:55;4.35;;;3.80;;
34896;SDS011;43407;51.828;-2.298;2023-07-22T12:33:22;5.28;;;3.67;;
34896;SDS011;43407;51.828;-2.298;2023-07-22T12:35:49;4.47;;;3.65;;
34896;SDS011;43407;51.828;-2.298;2023-07-22T12:38:15;3.95;;;3.22;;
34896;SDS011;43407;51.828;-2.298;2023-07-22T12:40:41;3.85;;;3.45;;
34896;SDS011;43407;51.828;-2.298;2023-07-22T12:43:06;4.25;;;3.55;;
34896;SDS011;43407;51.828;-2.298;2023-07-22T12:45:33;6.80;;;3.55;;
34896;SDS011;43407;51.828;-2.298;2023-07-22T12:47:59;5.38;;;3.22;;
34896;SDS011;43407;51.828;-2.298;2023-07-22T12:50:24;3.45;;;3.00;;
34896;SDS011;43407;51.828;-2.298;2023-07-22T12:52:50;4.30;;;3.53;;
34896;SDS011;43407;51.828;-2.298;2023-07-22T12:55:15;3.92;;;3.53;;
34896;SDS011;43407;51.828;-2.298;2023-07-22T12:57:41;3.20;;;2.80;;
34896;SDS011;43407;51.828;-2.298;2023-07-22T13:00:06;3.25;;;2.95;;
34896;SDS011;43407;51.828;-2.298;2023-07-22T13:02:35;3.50;;;3.20;;
34896;SDS011;43407;51.828;-2.298;2023-07-22T13:05:01;3.40;;;3.10;;
34896;SDS011;43407;51.828;-2.298;2023-07-22T13:07:27;4.05;;;3.15;;
34896;SDS011;43407;51.828;-2.298;2023-07-22T13:09:52;2.83;;;2.63;;
34896;SDS011;43407;51.828;-2.298;2023-07-22T13:12:21;4.45;;;2.40;;
34896;SDS011;43407;51.828;-2.298;2023-07-22T13:14:47;2.63;;;2.42;;
34896;SDS011;43407;51.828;-2.298;2023-07-22T13:17:13;4.97;;;2.47;;
34896;SDS011;43407;51.828;-2.298;2023-07-22T13:19:38;3.00;;;2.70;;
34896;SDS011;43407;51.828;-2.298;2023-07-22T13:22:04;4.35;;;2.63;;
34896;SDS011;43407;51.828;-2.298;2023-07-22T13:24:29;2.92;;;2.65;;
34896;SDS011;43407;51.828;-2.298;2023-07-22T13:26:55;3.47;;;2.13;;
34896;SDS011;43407;51.828;-2.298;2023-07-22T13:29:20;2.65;;;2.45;;
34896;SDS011;43407;51.828;-2.298;2023-07-22T13:31:46;3.63;;;2.85;;
34896;SDS011;43407;51.828;-2.298;2023-07-22T13:34:11;2.60;;;2.40;;
34896;SDS011;43407;51.828;-2.298;2023-07-22T13:36:37;3.00;;;2.70;;
34896;SDS011;43407;51.828;-2.298;2023-07-22T13:39:03;2.65;;;2.42;;
34896;SDS011;43407;51.828;-2.298;2023-07-22T13:41:28;2.58;;;2.38;;
34896;SDS011;43407;51.828;-2.298;2023-07-22T13:43:54;2.50;;;2.30;;
34896;SDS011;43407;51.828;-2.298;2023-07-22T13:46:19;2.70;;;2.38;;
34896;SDS011;43407;51.828;-2.298;2023-07-22T13:48:45;2.15;;;2.00;;
34896;SDS011;43407;51.828;-2.298;2023-07-22T13:51:11;2.40;;;2.20;;
34896;SDS011;43407;51.828;-2.298;2023-07-22T13:53:36;2.53;;;2.22;;
34896;SDS011;43407;51.828;-2.298;2023-07-22T13:56:02;2.28;;;2.08;;
34896;SDS011;43407;51.828;-2.298;2023-07-22T13:58:28;2.92;;;2.00;;
34896;SDS011;43407;51.828;-2.298;2023-07-22T14:00:54;2.08;;;1.88;;
34896;SDS011;43407;51.828;-2.298;2023-07-22T14:03:19;2.03;;;1.92;;
34896;SDS011;43407;51.828;-2.298;2023-07-22T14:05:45;1.90;;;1.80;;
34896;SDS011;43407;51.828;-2.298;2023-07-22T14:08:11;2.80;;;2.05;;
34896;SDS011;43407;51.828;-2.298;2023-07-22T14:10:37;2.03;;;1.83;;
34896;SDS011;43407;51.828;-2.298;2023-07-22T14:13:02;1.88;;;1.73;;
34896;SDS011;43407;51.828;-2.298;2023-07-22T14:15:28;1.90;;;1.80;;
34896;SDS011;43407;51.828;-2.298;2023-07-22T14:17:53;3.25;;;2.03;;
34896;SDS011;43407;51.828;-2.298;2023-07-22T14:20:19;1.70;;;1.60;;
34896;SDS011;43407;51.828;-2.298;2023-07-22T14:22:45;2.33;;;1.70;;
34896;SDS011;43407;51.828;-2.298;2023-07-22T14:25:10;1.80;;;1.70;;
34896;SDS011;43407;51.828;-2.298;2023-07-22T14:27:39;1.65;;;1.55;;
34896;SDS011;43407;51.828;-2.298;2023-07-22T14:30:05;1.80;;;1.70;;
34896;SDS011;43407;51.828;-2.298;2023-07-22T14:32:31;1.80;;;1.70;;
34896;SDS011;43407;51.828;-2.298;2023-07-22T14:34:57;1.63;;;1.40;;
34896;SDS011;43407;51.828;-2.298;2023-07-22T14:37:23;1.50;;;1.30;;
34896;SDS011;43407;51.828;-2.298;2023-07-22T14:39:48;1.63;;;1.27;;
34896;SDS011;43407;51.828;-2.298;2023-07-22T14:42:14;1.08;;;1.08;;
34896;SDS011;43407;51.828;-2.298;2023-07-22T14:44:40;2.55;;;1.20;;
34896;SDS011;43407;51.828;-2.298;2023-07-22T14:47:05;1.20;;;1.10;;
34896;SDS011;43407;51.828;-2.298;2023-07-22T14:49:31;0.90;;;0.90;;
34896;SDS011;43407;51.828;-2.298;2023-07-22T14:51:56;2.00;;;1.20;;
34896;SDS011;43407;51.828;-2.298;2023-07-22T14:54:22;1.40;;;1.30;;